sensor_id;sensor_type;location;lat;lon;timestamp;temperature;humidity
47618;DHT22;33336;36.728;-4.414;2023-11-21T00:00:45;21.10;94.70
47618;DHT22;33336;36.728;-4.414;2023-11-21T00:05:50;21.00;95.10
47618;DHT22;33336;36.728;-4.414;2023-11-21T00:10:54;21.10;95.40
47618;DHT22;33336;36.728;-4.414;2023-11-21T00:15:58;21.10;94.90
47618;DHT22;33336;36.728;-4.414;2023-11-21T00:21:03;20.70;95.70
47618;DHT22;33336;36.728;-4.414;2023-11-21T00:26:06;20.80;96.00
47618;DHT22;33336;36.728;-4.414;2023-11-21T00:31:10;20.90;96.00
47618;DHT22;33336;36.728;-4.414;2023-11-21T00:36:14;21.00;95.80
47618;DHT22;33336;36.728;-4.414;2023-11-21T00:41:19;21.10;95.90
47618;DHT22;33336;36.728;-4.414;2023-11-21T00:46:22;21.10;96.00
47618;DHT22;33336;36.728;-4.414;2023-11-21T00:51:28;21.00;96.10
47618;DHT22;33336;36.728;-4.414;2023-11-21T00:56:30;21.00;96.20
47618;DHT22;33336;36.728;-4.414;2023-11-21T01:01:35;20.80;96.40
47618;DHT22;33336;36.728;-4.414;2023-11-21T01:06:40;21.00;96.30
47618;DHT22;33336;36.728;-4.414;2023-11-21T01:11:44;20.90;96.30
47618;DHT22;33336;36.728;-4.414;2023-11-21T01:16:47;20.90;96.50
47618;DHT22;33336;36.728;-4.414;2023-11-21T01:21:53;20.60;96.70
47618;DHT22;33336;36.728;-4.414;2023-11-21T01:26:56;20.90;96.50
47618;DHT22;33336;36.728;-4.414;2023-11-21T01:31:58;20.80;96.50
47618;DHT22;33336;36.728;-4.414;2023-11-21T01:37:03;20.70;96.70
47618;DHT22;33336;36.728;-4.414;2023-11-21T01:42:07;20.70;96.80
47618;DHT22;33336;36.728;-4.414;2023-11-21T01:47:10;20.50;97.10
47618;DHT22;33336;36.728;-4.414;2023-11-21T01:52:16;20.40;97.40
47618;DHT22;33336;36.728;-4.414;2023-11-21T01:57:19;20.80;97.00
47618;DHT22;33336;36.728;-4.414;2023-11-21T02:02:24;20.90;96.90
47618;DHT22;33336;36.728;-4.414;2023-11-21T02:07:28;20.60;97.10
47618;DHT22;33336;36.728;-4.414;2023-11-21T02:12:32;20.60;97.00
47618;DHT22;33336;36.728;-4.414;2023-11-21T02:17:35;20.50;97.40
47618;DHT22;33336;36.728;-4.414;2023-11-21T02:22:41;20.70;97.20
47618;DHT22;33336;36.728;-4.414;2023-11-21T02:27:45;20.70;97.00
47618;DHT22;33336;36.728;-4.414;2023-11-21T02:32:52;20.40;97.30
47618;DHT22;33336;36.728;-4.414;2023-11-21T02:37:55;20.40;97.60
47618;DHT22;33336;36.728;-4.414;2023-11-21T02:43:00;20.20;97.90
47618;DHT22;33336;36.728;-4.414;2023-11-21T02:48:03;20.30;97.80
47618;DHT22;33336;36.728;-4.414;2023-11-21T02:53:08;20.10;98.10
47618;DHT22;33336;36.728;-4.414;2023-11-21T02:58:13;20.20;98.00
47618;DHT22;33336;36.728;-4.414;2023-11-21T03:03:17;20.10;97.90
47618;DHT22;33336;36.728;-4.414;2023-11-21T03:08:20;20.60;97.40
47618;DHT22;33336;36.728;-4.414;2023-11-21T03:13:25;20.30;97.80
47618;DHT22;33336;36.728;-4.414;2023-11-21T03:18:28;20.00;97.90
47618;DHT22;33336;36.728;-4.414;2023-11-21T03:23:32;20.20;97.80
47618;DHT22;33336;36.728;-4.414;2023-11-21T03:28:36;20.00;98.00
47618;DHT22;33336;36.728;-4.414;2023-11-21T03:33:40;20.20;97.90
47618;DHT22;33336;36.728;-4.414;2023-11-21T03:38:43;20.10;98.00
47618;DHT22;33336;36.728;-4.414;2023-11-21T03:43:48;20.00;98.10
47618;DHT22;33336;36.728;-4.414;2023-11-21T03:48:51;20.10;98.10
47618;DHT22;33336;36.728;-4.414;2023-11-21T03:53:55;19.60;98.40
47618;DHT22;33336;36.728;-4.414;2023-11-21T03:58:59;20.00;98.40
47618;DHT22;33336;36.728;-4.414;2023-11-21T04:04:04;20.00;98.20
47618;DHT22;33336;36.728;-4.414;2023-11-21T04:09:06;19.70;98.50
47618;DHT22;33336;36.728;-4.414;2023-11-21T04:14:12;19.50;98.80
47618;DHT22;33336;36.728;-4.414;2023-11-21T04:19:15;19.20;99.20
47618;DHT22;33336;36.728;-4.414;2023-11-21T04:24:19;19.40;99.20
47618;DHT22;33336;36.728;-4.414;2023-11-21T04:29:23;19.30;99.10
47618;DHT22;33336;36.728;-4.414;2023-11-21T04:34:27;19.40;99.10
47618;DHT22;33336;36.728;-4.414;2023-11-21T04:39:32;19.40;99.20
47618;DHT22;33336;36.728;-4.414;2023-11-21T04:44:37;19.60;99.00
47618;DHT22;33336;36.728;-4.414;2023-11-21T04:49:42;19.50;99.00
47618;DHT22;33336;36.728;-4.414;2023-11-21T04:54:46;19.30;99.10
47618;DHT22;33336;36.728;-4.414;2023-11-21T04:59:50;19.60;98.70
47618;DHT22;33336;36.728;-4.414;2023-11-21T05:04:54;19.60;98.80
47618;DHT22;33336;36.728;-4.414;2023-11-21T05:09:57;19.20;99.20
47618;DHT22;33336;36.728;-4.414;2023-11-21T05:15:04;19.30;99.30
47618;DHT22;33336;36.728;-4.414;2023-11-21T05:20:11;19.00;99.70
47618;DHT22;33336;36.728;-4.414;2023-11-21T05:25:18;18.90;99.80
47618;DHT22;33336;36.728;-4.414;2023-11-21T05:30:22;19.00;99.80
47618;DHT22;33336;36.728;-4.414;2023-11-21T05:35:26;18.90;99.90
47618;DHT22;33336;36.728;-4.414;2023-11-21T05:40:29;19.40;99.30
47618;DHT22;33336;36.728;-4.414;2023-11-21T05:45:35;19.40;99.20
47618;DHT22;33336;36.728;-4.414;2023-11-21T05:50:38;19.40;99.10
47618;DHT22;33336;36.728;-4.414;2023-11-21T05:55:42;19.40;99.10
47618;DHT22;33336;36.728;-4.414;2023-11-21T06:00:46;19.20;99.10
47618;DHT22;33336;36.728;-4.414;2023-11-21T06:05:50;19.20;99.20
47618;DHT22;33336;36.728;-4.414;2023-11-21T06:10:53;19.30;99.20
47618;DHT22;33336;36.728;-4.414;2023-11-21T06:15:58;19.40;98.90
47618;DHT22;33336;36.728;-4.414;2023-11-21T06:21:01;19.30;99.10
47618;DHT22;33336;36.728;-4.414;2023-11-21T06:26:06;19.40;99.10
47618;DHT22;33336;36.728;-4.414;2023-11-21T06:31:12;19.40;99.20
47618;DHT22;33336;36.728;-4.414;2023-11-21T06:36:16;19.20;99.40
47618;DHT22;33336;36.728;-4.414;2023-11-21T06:41:19;19.10;99.40
47618;DHT22;33336;36.728;-4.414;2023-11-21T06:46:25;19.20;99.40
47618;DHT22;33336;36.728;-4.414;2023-11-21T06:51:28;19.00;99.80
47618;DHT22;33336;36.728;-4.414;2023-11-21T06:56:32;18.80;99.90
47618;DHT22;33336;36.728;-4.414;2023-11-21T07:01:36;18.90;99.90
47618;DHT22;33336;36.728;-4.414;2023-11-21T07:06:41;19.00;99.90
47618;DHT22;33336;36.728;-4.414;2023-11-21T07:11:44;18.80;99.90
47618;DHT22;33336;36.728;-4.414;2023-11-21T07:16:49;18.80;99.90
47618;DHT22;33336;36.728;-4.414;2023-11-21T07:21:53;18.70;99.90
47618;DHT22;33336;36.728;-4.414;2023-11-21T07:26:58;18.80;99.90
47618;DHT22;33336;36.728;-4.414;2023-11-21T07:32:03;19.20;99.90
47618;DHT22;33336;36.728;-4.414;2023-11-21T07:37:08;19.20;99.90
47618;DHT22;33336;36.728;-4.414;2023-11-21T07:42:11;18.90;99.90
47618;DHT22;33336;36.728;-4.414;2023-11-21T07:47:16;18.90;99.90
47618;DHT22;33336;36.728;-4.414;2023-11-21T07:52:19;19.00;99.90
47618;DHT22;33336;36.728;-4.414;2023-11-21T07:57:23;19.10;99.90
47618;DHT22;33336;36.728;-4.414;2023-11-21T08:02:27;19.10;99.60
47618;DHT22;33336;36.728;-4.414;2023-11-21T08:07:31;19.30;99.60
47618;DHT22;33336;36.728;-4.414;2023-11-21T08:12:34;19.60;99.10
47618;DHT22;33336;36.728;-4.414;2023-11-21T08:17:38;19.90;98.70
47618;DHT22;33336;36.728;-4.414;2023-11-21T08:22:41;20.20;98.20
47618;DHT22;33336;36.728;-4.414;2023-11-21T08:27:45;20.10;97.90
47618;DHT22;33336;36.728;-4.414;2023-11-21T08:32:49;19.80;98.30
47618;DHT22;33336;36.728;-4.414;2023-11-21T08:37:54;20.00;98.00
47618;DHT22;33336;36.728;-4.414;2023-11-21T08:42:57;19.70;97.70
47618;DHT22;33336;36.728;-4.414;2023-11-21T08:48:03;19.90;97.70
47618;DHT22;33336;36.728;-4.414;2023-11-21T08:53:06;20.00;97.70
47618;DHT22;33336;36.728;-4.414;2023-11-21T08:58:10;20.20;97.30
47618;DHT22;33336;36.728;-4.414;2023-11-21T09:03:15;20.30;96.90
47618;DHT22;33336;36.728;-4.414;2023-11-21T09:08:18;20.50;96.90
47618;DHT22;33336;36.728;-4.414;2023-11-21T09:13:23;20.60;96.80
47618;DHT22;33336;36.728;-4.414;2023-11-21T09:18:29;20.60;96.70
47618;DHT22;33336;36.728;-4.414;2023-11-21T09:23:32;20.50;96.90
47618;DHT22;33336;36.728;-4.414;2023-11-21T09:28:36;20.60;96.60
47618;DHT22;33336;36.728;-4.414;2023-11-21T09:33:42;20.60;97.00
47618;DHT22;33336;36.728;-4.414;2023-11-21T09:38:46;20.70;96.80
47618;DHT22;33336;36.728;-4.414;2023-11-21T09:43:55;20.50;96.50
47618;DHT22;33336;36.728;-4.414;2023-11-21T09:49:03;20.60;96.80
47618;DHT22;33336;36.728;-4.414;2023-11-21T09:54:10;20.70;96.30
47618;DHT22;33336;36.728;-4.414;2023-11-21T09:59:15;20.90;96.30
47618;DHT22;33336;36.728;-4.414;2023-11-21T10:04:20;20.70;96.30
47618;DHT22;33336;36.728;-4.414;2023-11-21T10:09:24;21.00;96.20
47618;DHT22;33336;36.728;-4.414;2023-11-21T10:14:28;21.20;95.90
47618;DHT22;33336;36.728;-4.414;2023-11-21T10:19:33;21.30;95.80
47618;DHT22;33336;36.728;-4.414;2023-11-21T10:24:37;20.90;95.60
47618;DHT22;33336;36.728;-4.414;2023-11-21T10:29:41;21.30;95.80
47618;DHT22;33336;36.728;-4.414;2023-11-21T10:34:55;21.50;95.10
47618;DHT22;33336;36.728;-4.414;2023-11-21T10:39:59;21.60;94.90
47618;DHT22;33336;36.728;-4.414;2023-11-21T10:45:04;21.70;94.90
47618;DHT22;33336;36.728;-4.414;2023-11-21T10:50:13;21.60;94.70
47618;DHT22;33336;36.728;-4.414;2023-11-21T10:55:17;21.90;94.30
47618;DHT22;33336;36.728;-4.414;2023-11-21T11:00:21;21.70;95.10
47618;DHT22;33336;36.728;-4.414;2023-11-21T11:05:27;22.10;94.70
47618;DHT22;33336;36.728;-4.414;2023-11-21T11:10:32;21.90;94.40
47618;DHT22;33336;36.728;-4.414;2023-11-21T11:15:36;21.70;94.40
47618;DHT22;33336;36.728;-4.414;2023-11-21T11:20:43;22.30;94.00
47618;DHT22;33336;36.728;-4.414;2023-11-21T11:26:00;22.20;93.90
47618;DHT22;33336;36.728;-4.414;2023-11-21T11:31:18;22.30;94.20
47618;DHT22;33336;36.728;-4.414;2023-11-21T11:36:27;22.40;94.20
47618;DHT22;33336;36.728;-4.414;2023-11-21T11:41:32;21.90;94.10
47618;DHT22;33336;36.728;-4.414;2023-11-21T11:46:42;21.70;94.10
47618;DHT22;33336;36.728;-4.414;2023-11-21T11:57:31;21.60;94.50
47618;DHT22;33336;36.728;-4.414;2023-11-21T12:02:35;21.40;94.60
47618;DHT22;33336;36.728;-4.414;2023-11-21T12:07:48;21.70;94.10
47618;DHT22;33336;36.728;-4.414;2023-11-21T12:12:53;21.00;94.00
47618;DHT22;33336;36.728;-4.414;2023-11-21T12:17:56;21.30;93.80
47618;DHT22;33336;36.728;-4.414;2023-11-21T12:23:01;21.70;93.30
47618;DHT22;33336;36.728;-4.414;2023-11-21T12:28:04;21.60;92.90
47618;DHT22;33336;36.728;-4.414;2023-11-21T12:33:08;21.80;92.70
47618;DHT22;33336;36.728;-4.414;2023-11-21T12:38:13;21.50;92.10
47618;DHT22;33336;36.728;-4.414;2023-11-21T12:43:18;22.00;92.00
47618;DHT22;33336;36.728;-4.414;2023-11-21T12:48:21;21.80;91.80
47618;DHT22;33336;36.728;-4.414;2023-11-21T12:53:27;21.70;91.20
47618;DHT22;33336;36.728;-4.414;2023-11-21T12:58:38;21.30;91.90
47618;DHT22;33336;36.728;-4.414;2023-11-21T13:03:43;21.10;91.70
47618;DHT22;33336;36.728;-4.414;2023-11-21T13:08:48;21.20;91.70
47618;DHT22;33336;36.728;-4.414;2023-11-21T13:13:52;21.70;91.60
47618;DHT22;33336;36.728;-4.414;2023-11-21T13:18:55;21.80;91.40
47618;DHT22;33336;36.728;-4.414;2023-11-21T13:24:01;22.20;90.90
47618;DHT22;33336;36.728;-4.414;2023-11-21T13:29:04;22.30;90.70
47618;DHT22;33336;36.728;-4.414;2023-11-21T13:34:09;21.90;91.10
47618;DHT22;33336;36.728;-4.414;2023-11-21T13:39:17;22.60;90.20
47618;DHT22;33336;36.728;-4.414;2023-11-21T13:44:21;23.10;89.20
47618;DHT22;33336;36.728;-4.414;2023-11-21T13:49:35;23.40;88.00
47618;DHT22;33336;36.728;-4.414;2023-11-21T13:54:44;22.50;88.50
47618;DHT22;33336;36.728;-4.414;2023-11-21T13:59:47;23.00;87.50
47618;DHT22;33336;36.728;-4.414;2023-11-21T14:04:51;24.20;85.20
47618;DHT22;33336;36.728;-4.414;2023-11-21T14:09:58;24.70;84.90
47618;DHT22;33336;36.728;-4.414;2023-11-21T14:15:02;24.60;84.50
47618;DHT22;33336;36.728;-4.414;2023-11-21T14:20:07;24.50;83.80
47618;DHT22;33336;36.728;-4.414;2023-11-21T14:25:18;24.90;83.70
47618;DHT22;33336;36.728;-4.414;2023-11-21T14:30:24;25.20;84.10
47618;DHT22;33336;36.728;-4.414;2023-11-21T14:35:28;25.60;83.10
47618;DHT22;33336;36.728;-4.414;2023-11-21T14:40:35;25.70;81.80
47618;DHT22;33336;36.728;-4.414;2023-11-21T14:45:38;26.40;81.50
47618;DHT22;33336;36.728;-4.414;2023-11-21T14:50:41;25.60;82.10
47618;DHT22;33336;36.728;-4.414;2023-11-21T14:56:13;25.70;82.10
47618;DHT22;33336;36.728;-4.414;2023-11-21T15:01:24;26.80;80.30
47618;DHT22;33336;36.728;-4.414;2023-11-21T15:06:45;26.90;81.00
47618;DHT22;33336;36.728;-4.414;2023-11-21T15:11:50;24.10;82.70
47618;DHT22;33336;36.728;-4.414;2023-11-21T15:16:57;24.30;82.70
47618;DHT22;33336;36.728;-4.414;2023-11-21T15:22:02;25.60;81.20
47618;DHT22;33336;36.728;-4.414;2023-11-21T15:27:07;24.70;80.90
47618;DHT22;33336;36.728;-4.414;2023-11-21T15:32:11;26.30;80.90
47618;DHT22;33336;36.728;-4.414;2023-11-21T15:37:14;27.80;80.30
47618;DHT22;33336;36.728;-4.414;2023-11-21T15:42:19;27.30;78.60
47618;DHT22;33336;36.728;-4.414;2023-11-21T15:47:23;26.70;80.00
47618;DHT22;33336;36.728;-4.414;2023-11-21T15:52:25;27.20;79.10
47618;DHT22;33336;36.728;-4.414;2023-11-21T15:57:32;25.40;81.20
47618;DHT22;33336;36.728;-4.414;2023-11-21T16:02:35;26.90;79.50
47618;DHT22;33336;36.728;-4.414;2023-11-21T16:07:40;27.20;79.40
47618;DHT22;33336;36.728;-4.414;2023-11-21T16:12:44;27.00;79.60
47618;DHT22;33336;36.728;-4.414;2023-11-21T16:17:47;25.80;79.50
47618;DHT22;33336;36.728;-4.414;2023-11-21T16:22:50;25.00;80.50
47618;DHT22;33336;36.728;-4.414;2023-11-21T16:27:55;25.40;81.10
47618;DHT22;33336;36.728;-4.414;2023-11-21T16:33:00;25.20;81.30
47618;DHT22;33336;36.728;-4.414;2023-11-21T16:38:05;24.70;82.30
47618;DHT22;33336;36.728;-4.414;2023-11-21T16:43:10;24.30;82.70
47618;DHT22;33336;36.728;-4.414;2023-11-21T16:48:14;22.80;84.60
47618;DHT22;33336;36.728;-4.414;2023-11-21T16:53:16;22.40;85.70
47618;DHT22;33336;36.728;-4.414;2023-11-21T16:58:21;21.30;88.00
47618;DHT22;33336;36.728;-4.414;2023-11-21T17:03:24;20.90;88.90
47618;DHT22;33336;36.728;-4.414;2023-11-21T17:08:28;20.70;89.50
47618;DHT22;33336;36.728;-4.414;2023-11-21T17:13:32;20.30;90.00
47618;DHT22;33336;36.728;-4.414;2023-11-21T17:18:36;19.80;90.60
47618;DHT22;33336;36.728;-4.414;2023-11-21T17:23:38;19.60;91.00
47618;DHT22;33336;36.728;-4.414;2023-11-21T17:28:43;19.40;91.30
47618;DHT22;33336;36.728;-4.414;2023-11-21T17:33:46;19.70;91.20
47618;DHT22;33336;36.728;-4.414;2023-11-21T17:38:50;19.80;91.20
47618;DHT22;33336;36.728;-4.414;2023-11-21T17:43:55;19.60;91.50
47618;DHT22;33336;36.728;-4.414;2023-11-21T17:48:59;19.20;92.00
47618;DHT22;33336;36.728;-4.414;2023-11-21T17:54:01;19.40;91.90
47618;DHT22;33336;36.728;-4.414;2023-11-21T17:59:06;19.40;91.80
47618;DHT22;33336;36.728;-4.414;2023-11-21T18:04:09;19.60;91.80
47618;DHT22;33336;36.728;-4.414;2023-11-21T18:09:13;19.00;92.30
47618;DHT22;33336;36.728;-4.414;2023-11-21T18:14:18;18.80;92.70
47618;DHT22;33336;36.728;-4.414;2023-11-21T18:19:22;18.90;92.70
47618;DHT22;33336;36.728;-4.414;2023-11-21T18:24:24;18.90;92.90
47618;DHT22;33336;36.728;-4.414;2023-11-21T18:29:29;19.00;92.70
47618;DHT22;33336;36.728;-4.414;2023-11-21T18:34:32;19.10;92.60
47618;DHT22;33336;36.728;-4.414;2023-11-21T18:52:07;19.10;92.40
47618;DHT22;33336;36.728;-4.414;2023-11-21T18:57:10;18.70;93.20
47618;DHT22;33336;36.728;-4.414;2023-11-21T19:02:13;19.00;93.10
47618;DHT22;33336;36.728;-4.414;2023-11-21T19:07:18;18.40;93.60
47618;DHT22;33336;36.728;-4.414;2023-11-21T19:12:23;18.50;93.60
47618;DHT22;33336;36.728;-4.414;2023-11-21T19:17:26;18.70;93.50
47618;DHT22;33336;36.728;-4.414;2023-11-21T19:22:30;18.80;93.30
47618;DHT22;33336;36.728;-4.414;2023-11-21T19:27:35;18.40;93.80
47618;DHT22;33336;36.728;-4.414;2023-11-21T19:32:38;18.70;93.50
47618;DHT22;33336;36.728;-4.414;2023-11-21T19:37:43;18.90;93.20
47618;DHT22;33336;36.728;-4.414;2023-11-21T19:42:45;18.80;93.40
47618;DHT22;33336;36.728;-4.414;2023-11-21T19:47:48;18.70;93.40
47618;DHT22;33336;36.728;-4.414;2023-11-21T19:52:53;18.70;93.20
47618;DHT22;33336;36.728;-4.414;2023-11-21T19:57:56;18.60;93.40
47618;DHT22;33336;36.728;-4.414;2023-11-21T20:03:02;18.60;93.40
47618;DHT22;33336;36.728;-4.414;2023-11-21T20:08:07;18.60;93.20
47618;DHT22;33336;36.728;-4.414;2023-11-21T20:13:09;18.70;93.30
47618;DHT22;33336;36.728;-4.414;2023-11-21T20:18:13;18.70;93.10
47618;DHT22;33336;36.728;-4.414;2023-11-21T20:23:18;18.80;93.10
47618;DHT22;33336;36.728;-4.414;2023-11-21T20:28:22;18.40;93.40
47618;DHT22;33336;36.728;-4.414;2023-11-21T20:33:26;18.40;93.50
47618;DHT22;33336;36.728;-4.414;2023-11-21T20:38:31;18.50;93.20
47618;DHT22;33336;36.728;-4.414;2023-11-21T20:43:34;18.90;93.00
47618;DHT22;33336;36.728;-4.414;2023-11-21T20:48:37;18.80;93.00
47618;DHT22;33336;36.728;-4.414;2023-11-21T20:53:41;18.80;92.90
47618;DHT22;33336;36.728;-4.414;2023-11-21T20:58:45;18.70;92.80
47618;DHT22;33336;36.728;-4.414;2023-11-21T21:03:48;18.80;92.60
47618;DHT22;33336;36.728;-4.414;2023-11-21T21:08:54;19.00;92.40
47618;DHT22;33336;36.728;-4.414;2023-11-21T21:13:57;19.00;92.30
47618;DHT22;33336;36.728;-4.414;2023-11-21T21:19:00;19.10;92.20
47618;DHT22;33336;36.728;-4.414;2023-11-21T21:24:07;19.10;92.10
47618;DHT22;33336;36.728;-4.414;2023-11-21T21:29:11;18.90;92.00
47618;DHT22;33336;36.728;-4.414;2023-11-21T21:34:14;18.80;92.00
47618;DHT22;33336;36.728;-4.414;2023-11-21T21:39:20;18.60;92.10
47618;DHT22;33336;36.728;-4.414;2023-11-21T21:44:23;18.50;91.80
47618;DHT22;33336;36.728;-4.414;2023-11-21T21:49:26;18.50;91.30
47618;DHT22;33336;36.728;-4.414;2023-11-21T21:54:31;18.50;91.20
47618;DHT22;33336;36.728;-4.414;2023-11-21T21:59:34;18.40;90.90
47618;DHT22;33336;36.728;-4.414;2023-11-21T22:04:39;18.50;90.40
47618;DHT22;33336;36.728;-4.414;2023-11-21T22:09:44;18.60;90.20
47618;DHT22;33336;36.728;-4.414;2023-11-21T22:14:47;18.80;89.80
47618;DHT22;33336;36.728;-4.414;2023-11-21T22:19:50;18.80;89.80
47618;DHT22;33336;36.728;-4.414;2023-11-21T22:24:54;17.90;90.20
47618;DHT22;33336;36.728;-4.414;2023-11-21T22:29:58;17.40;89.70
47618;DHT22;33336;36.728;-4.414;2023-11-21T22:35:01;17.20;90.10
47618;DHT22;33336;36.728;-4.414;2023-11-21T22:40:07;17.40;88.80
47618;DHT22;33336;36.728;-4.414;2023-11-21T22:45:10;17.70;89.90
47618;DHT22;33336;36.728;-4.414;2023-11-21T22:50:14;17.30;90.50
47618;DHT22;33336;36.728;-4.414;2023-11-21T22:55:19;17.00;91.20
47618;DHT22;33336;36.728;-4.414;2023-11-21T23:00:22;16.90;91.30
47618;DHT22;33336;36.728;-4.414;2023-11-21T23:05:31;16.90;88.80
47618;DHT22;33336;36.728;-4.414;2023-11-21T23:10:36;16.60;90.50
47618;DHT22;33336;36.728;-4.414;2023-11-21T23:15:40;16.60;89.30
47618;DHT22;33336;36.728;-4.414;2023-11-21T23:20:48;16.80;88.20
47618;DHT22;33336;36.728;-4.414;2023-11-21T23:25:52;16.90;87.60
47618;DHT22;33336;36.728;-4.414;2023-11-21T23:30:56;16.80;87.40
47618;DHT22;33336;36.728;-4.414;2023-11-21T23:35:59;17.10;87.60
47618;DHT22;33336;36.728;-4.414;2023-11-21T23:41:04;17.50;85.80
47618;DHT22;33336;36.728;-4.414;2023-11-21T23:46:07;17.40;84.40
47618;DHT22;33336;36.728;-4.414;2023-11-21T23:51:11;17.60;83.50
47618;DHT22;33336;36.728;-4.414;2023-11-21T23:56:16;17.80;83.60
